createdAt,value
2022-09-28T00:01:17.548Z,99487.50
2022-09-28T00:03:47.520Z,99496.81
2022-09-28T00:06:18.585Z,99495.19
2022-09-28T00:08:46.824Z,99489.34
2022-09-28T00:11:18.830Z,99490.16
2022-09-28T00:13:50.949Z,99488.94
2022-09-28T00:16:24.450Z,99488.94
2022-09-28T00:18:52.286Z,99491.84
2022-09-28T00:21:22.636Z,99489.41
2022-09-28T00:24:12.421Z,99485.38
2022-09-28T00:26:45.367Z,99480.16
2022-09-28T00:29:32.356Z,99483.72
2022-09-28T00:32:02.938Z,99485.31
2022-09-28T00:34:33.361Z,99488.41
2022-09-28T00:37:02.630Z,99479.09
2022-09-28T00:39:32.785Z,99479.25
2022-09-28T00:42:02.449Z,99470.34
2022-09-28T00:44:40.031Z,99471.97
2022-09-28T00:47:42.912Z,99474.38
2022-09-28T00:50:20.519Z,99465.78
2022-09-28T00:52:54.319Z,99466.16
2022-09-28T00:55:34.358Z,99461.66
2022-09-28T00:58:07.822Z,99464.09
2022-09-28T01:00:35.605Z,99460.22
2022-09-28T01:03:04.127Z,99465.25
2022-09-28T01:05:33.191Z,99461.38
2022-09-28T01:08:03.262Z,99452.78
2022-09-28T01:10:31.541Z,99455.13
2022-09-28T01:12:59.346Z,99453.63
2022-09-28T01:15:30.450Z,99451.94
2022-09-28T01:18:13.172Z,99441.94
2022-09-28T01:20:57.091Z,99444.13
2022-09-28T01:24:19.081Z,99441.59
2022-09-28T01:27:13.421Z,99438.19
2022-09-28T01:29:52.619Z,99433.13
2022-09-28T01:32:36.569Z,99443.41
2022-09-28T01:35:11.164Z,99438.94
2022-09-28T01:37:47.694Z,99425.38
2022-09-28T01:40:16.804Z,99429.41
2022-09-28T01:42:51.646Z,99428.94
2022-09-28T01:45:28.633Z,99429.41
2022-09-28T01:48:02.950Z,99432.72
2022-09-28T01:50:37.912Z,99434.34
2022-09-28T01:53:15.734Z,99424.31
2022-09-28T01:55:47.898Z,99428.22
2022-09-28T01:58:28.111Z,99424.00
2022-09-28T02:01:06.369Z,99418.03
2022-09-28T02:03:42.284Z,99416.41
2022-09-28T02:06:18.829Z,99413.16
2022-09-28T02:08:51.708Z,99412.03
2022-09-28T02:11:21.360Z,99411.09
2022-09-28T02:13:56.264Z,99410.97
2022-09-28T02:16:36.663Z,99408.00
2022-09-28T02:19:06.542Z,99405.69
2022-09-28T02:21:43.154Z,99403.97
2022-09-28T02:24:22.471Z,99408.34
2022-09-28T02:26:53.359Z,99402.81
2022-09-28T02:29:22.246Z,99411.13
2022-09-28T02:31:51.614Z,99404.47
2022-09-28T02:34:18.958Z,99401.78
2022-09-28T02:36:47.826Z,99407.75
2022-09-28T02:39:17.994Z,99410.53
2022-09-28T02:41:58.008Z,99403.28
2022-09-28T02:44:49.580Z,99409.34
2022-09-28T02:47:34.452Z,99405.94
2022-09-28T02:50:15.783Z,99411.56
2022-09-28T02:53:19.883Z,99411.47
2022-09-28T02:56:07.958Z,99406.59
2022-09-28T02:58:50.893Z,99409.50
2022-09-28T03:01:29.834Z,99408.91
2022-09-28T03:04:10.835Z,99415.00
2022-09-28T03:06:46.994Z,99413.41
2022-09-28T03:09:22.918Z,99413.97
2022-09-28T03:11:56.024Z,99411.91
2022-09-28T03:14:23.816Z,99409.16
2022-09-28T03:16:52.616Z,99414.31
2022-09-28T03:19:26.915Z,99410.63
2022-09-28T03:21:55.212Z,99406.50
2022-09-28T03:24:22.521Z,99414.53
2022-09-28T03:26:49.811Z,99406.50
2022-09-28T03:29:17.754Z,99406.00
2022-09-28T03:31:45.176Z,99405.53
2022-09-28T03:34:13.844Z,99400.91
2022-09-28T03:36:41.486Z,99409.22
2022-09-28T03:39:08.786Z,99411.72
2022-09-28T03:41:36.059Z,99402.50
2022-09-28T03:44:03.777Z,99406.84
2022-09-28T03:46:31.115Z,99411.78
2022-09-28T03:48:59.279Z,99407.16
2022-09-28T03:51:28.001Z,99405.41
2022-09-28T03:53:55.270Z,99410.22
2022-09-28T03:56:22.676Z,99404.91
2022-09-28T03:58:49.965Z,99405.41
2022-09-28T04:01:18.189Z,99408.53
2022-09-28T04:03:46.847Z,99403.94
2022-09-28T04:06:14.743Z,99404.41
2022-09-28T04:08:43.565Z,99400.38
2022-09-28T04:11:11.017Z,99406.13
2022-09-28T04:13:38.873Z,99401.44
2022-09-28T04:16:06.752Z,99408.78
2022-09-28T04:18:34.573Z,99398.59
2022-09-28T04:21:06.588Z,99400.09
2022-09-28T04:23:35.356Z,99399.03
2022-09-28T04:26:05.607Z,99409.66
2022-09-28T04:28:51.854Z,99400.00
2022-09-28T04:31:22.823Z,99400.72
2022-09-28T04:33:50.655Z,99403.56
2022-09-28T04:36:19.763Z,99402.34
2022-09-28T04:38:53.083Z,99406.94
2022-09-28T04:41:22.785Z,99404.75
2022-09-28T04:43:50.920Z,99407.97
2022-09-28T04:46:19.043Z,99405.94
2022-09-28T04:48:46.326Z,99401.09
2022-09-28T04:51:13.887Z,99401.31
2022-09-28T04:53:41.260Z,99405.81
2022-09-28T04:56:11.608Z,99404.19
2022-09-28T04:58:41.397Z,99398.91
2022-09-28T05:01:12.195Z,99402.13
2022-09-28T05:03:39.685Z,99400.53
2022-09-28T05:06:08.024Z,99405.47
2022-09-28T05:08:35.981Z,99406.16
2022-09-28T05:11:07.576Z,99396.63
2022-09-28T05:13:45.403Z,99398.69
2022-09-28T05:16:16.202Z,99401.31
2022-09-28T05:18:43.907Z,99402.38
2022-09-28T05:21:13.041Z,99401.22
2022-09-28T05:23:40.763Z,99403.78
2022-09-28T05:26:08.224Z,99405.22
2022-09-28T05:28:38.312Z,99405.81
2022-09-28T05:31:07.109Z,99404.34
2022-09-28T05:33:34.823Z,99404.47
2022-09-28T05:36:02.964Z,99401.44
2022-09-28T05:38:30.508Z,99406.13
2022-09-28T05:40:57.899Z,99404.88
2022-09-28T05:43:25.413Z,99401.31
2022-09-28T05:45:55.625Z,99395.13
2022-09-28T05:48:25.081Z,99400.28
2022-09-28T05:50:53.077Z,99398.81
2022-09-28T05:53:20.780Z,99392.59
2022-09-28T05:55:48.812Z,99399.75
2022-09-28T05:58:16.869Z,99398.34
2022-09-28T06:00:44.446Z,99398.22
2022-09-28T06:03:14.319Z,99399.94
2022-09-28T06:05:43.017Z,99405.38
2022-09-28T06:08:11.588Z,99399.16
2022-09-28T06:10:39.479Z,99398.22
2022-09-28T06:13:07.655Z,99398.78
2022-09-28T06:15:36.453Z,99400.53
2022-09-28T06:18:06.485Z,99404.88
2022-09-28T06:20:36.352Z,99401.88
2022-09-28T06:23:05.216Z,99399.31
2022-09-28T06:25:32.683Z,99400.91
2022-09-28T06:28:02.294Z,99406.22
2022-09-28T06:30:32.918Z,99405.75
2022-09-28T06:33:02.080Z,99402.09
2022-09-28T06:35:31.392Z,99414.84
2022-09-28T06:38:00.574Z,99414.47
2022-09-28T06:40:29.574Z,99415.97
2022-09-28T06:42:58.936Z,99422.03
2022-09-28T06:45:28.593Z,99427.47
2022-09-28T06:47:58.532Z,99427.16
2022-09-28T06:50:27.758Z,99432.47
2022-09-28T06:52:57.210Z,99438.56
2022-09-28T06:55:25.822Z,99438.91
2022-09-28T06:58:00.373Z,99437.47
2022-09-28T07:00:29.513Z,99440.34
2022-09-28T07:02:57.009Z,99440.75
2022-09-28T07:05:27.388Z,99441.75
2022-09-28T07:07:58.054Z,99440.69
2022-09-28T07:10:30.252Z,99448.03
2022-09-28T07:13:04.779Z,99446.03
2022-09-28T07:15:33.020Z,99455.38
2022-09-28T07:18:03.980Z,99457.78
2022-09-28T07:20:44.596Z,99457.44
2022-09-28T07:23:19.824Z,99460.25
2022-09-28T07:25:49.622Z,99463.16
2022-09-28T07:28:18.560Z,99459.69
2022-09-28T07:30:45.934Z,99454.47
2022-09-28T07:33:15.853Z,99464.47
2022-09-28T07:35:51.021Z,99461.41
2022-09-28T07:38:19.032Z,99461.91
2022-09-28T07:41:05.278Z,99470.28
2022-09-28T07:43:33.995Z,99477.03
2022-09-28T07:46:01.423Z,99474.56
2022-09-28T07:48:28.805Z,99479.44
2022-09-28T07:50:57.432Z,99477.94
2022-09-28T07:53:25.974Z,99485.81
2022-09-28T07:55:54.550Z,99478.41
2022-09-28T07:58:22.874Z,99486.47
2022-09-28T08:00:51.902Z,99490.69
2022-09-28T08:03:23.985Z,99487.56
2022-09-28T08:05:58.870Z,99495.97
2022-09-28T08:08:27.475Z,99486.13
2022-09-28T08:13:28.951Z,99487.09
2022-09-28T08:16:02.328Z,99496.44
2022-09-28T08:18:30.151Z,99498.34
2022-09-28T08:21:17.933Z,99497.72
2022-09-28T08:23:45.267Z,99499.09
2022-09-28T08:26:15.571Z,99497.06
2022-09-28T08:28:43.646Z,99505.13
2022-09-28T08:31:12.479Z,99504.47
2022-09-28T08:33:42.137Z,99504.94
2022-09-28T08:36:10.703Z,99514.50
2022-09-28T08:38:38.339Z,99511.94
2022-09-28T08:41:18.804Z,99515.72
2022-09-28T08:44:11.610Z,99521.59
2022-09-28T08:46:47.913Z,99530.22
2022-09-28T08:49:30.578Z,99530.13
2022-09-28T08:52:03.709Z,99531.66
2022-09-28T08:54:40.075Z,99528.09
2022-09-28T08:57:15.629Z,99538.38
2022-09-28T08:59:51.372Z,99529.38
2022-09-28T09:02:29.417Z,99542.75
2022-09-28T09:04:58.784Z,99534.22
2022-09-28T09:07:56.951Z,99545.38
2022-09-28T09:10:48.161Z,99549.03
2022-09-28T09:13:45.732Z,99549.00
2022-09-28T09:16:30.654Z,99548.63
2022-09-28T09:19:15.149Z,99555.00
2022-09-28T09:21:51.944Z,99552.91
2022-09-28T09:24:27.347Z,99551.47
2022-09-28T09:27:13.068Z,99557.31
2022-09-28T09:30:04.459Z,99552.25
2022-09-28T09:33:07.021Z,99563.66
2022-09-28T09:36:12.273Z,99566.25
2022-09-28T09:39:02.454Z,99566.72
2022-09-28T09:41:49.206Z,99566.38
2022-09-28T09:44:57.979Z,99564.53
2022-09-28T09:47:33.903Z,99570.59
2022-09-28T09:50:12.229Z,99569.16
2022-09-28T09:52:55.024Z,99570.47
2022-09-28T09:55:30.241Z,99576.03
2022-09-28T09:58:10.022Z,99575.72
2022-09-28T10:00:42.642Z,99581.03
2022-09-28T10:03:22.304Z,99584.84
2022-09-28T10:05:58.280Z,99582.19
2022-09-28T10:08:29.395Z,99584.34
2022-09-28T10:11:10.201Z,99589.25
2022-09-28T10:13:37.475Z,99584.47
2022-09-28T10:16:07.591Z,99586.25
2022-09-28T10:18:36.694Z,99581.31
2022-09-28T10:21:06.375Z,99583.84
2022-09-28T10:23:39.302Z,99584.19
2022-09-28T10:26:15.164Z,99581.25
2022-09-28T10:28:51.902Z,99581.44
2022-09-28T10:31:36.698Z,99577.25
2022-09-28T10:34:07.802Z,99577.63
2022-09-28T10:36:56.056Z,99578.66
2022-09-28T10:39:47.516Z,99588.56
2022-09-28T10:42:22.242Z,99581.41
2022-09-28T10:44:55.388Z,99592.59
2022-09-28T10:47:26.138Z,99584.28
2022-09-28T10:49:55.815Z,99597.53
2022-09-28T10:52:41.936Z,99590.00
2022-09-28T10:55:37.056Z,99594.75
2022-09-28T10:58:42.149Z,99590.44
2022-09-28T11:01:15.328Z,99595.03
2022-09-28T11:03:55.365Z,99590.63
2022-09-28T11:06:28.963Z,99587.69
2022-09-28T11:09:00.763Z,99592.09
2022-09-28T11:11:31.477Z,99587.06
2022-09-28T11:14:01.972Z,99587.94
2022-09-28T11:16:31.878Z,99589.19
2022-09-28T11:19:05.147Z,99593.00
2022-09-28T11:21:43.401Z,99593.25
2022-09-28T11:24:21.026Z,99585.69
2022-09-28T11:26:53.360Z,99587.91
2022-09-28T11:29:26.807Z,99589.00
2022-09-28T11:32:00.124Z,99585.28
2022-09-28T11:34:58.165Z,99590.56
2022-09-28T11:37:53.555Z,99581.22
2022-09-28T11:40:43.321Z,99584.16
2022-09-28T11:43:24.892Z,99586.38
2022-09-28T11:46:08.477Z,99585.31
2022-09-28T11:48:45.965Z,99593.78
2022-09-28T11:51:24.882Z,99588.09
2022-09-28T11:53:59.635Z,99592.94
2022-09-28T11:56:40.827Z,99590.84
2022-09-28T11:59:20.865Z,99596.50
2022-09-28T12:01:55.668Z,99598.66
2022-09-28T12:04:31.970Z,99589.81
2022-09-28T12:07:07.590Z,99588.16
2022-09-28T12:09:43.454Z,99592.16
2022-09-28T12:12:22.393Z,99584.16
2022-09-28T12:15:02.886Z,99590.56
2022-09-28T12:17:38.826Z,99599.41
2022-09-28T12:20:19.304Z,99593.53
2022-09-28T12:23:03.958Z,99595.41
2022-09-28T12:25:42.980Z,99601.59
2022-09-28T12:28:24.954Z,99600.78
2022-09-28T12:30:56.553Z,99599.72
2022-09-28T12:33:23.869Z,99594.38
2022-09-28T12:36:14.373Z,99598.56
2022-09-28T12:39:40.957Z,99596.66
2022-09-28T12:42:16.521Z,99604.91
2022-09-28T12:45:20.013Z,99606.44
2022-09-28T12:48:32.117Z,99610.13
2022-09-28T12:51:15.889Z,99604.19
2022-09-28T12:54:08.184Z,99605.44
2022-09-28T12:56:47.726Z,99598.72
2022-09-28T12:59:29.027Z,99608.81
2022-09-28T13:02:37.260Z,99606.06
2022-09-28T13:05:32.648Z,99599.63
2022-09-28T13:08:11.427Z,99609.22
2022-09-28T13:10:48.785Z,99611.34
2022-09-28T13:13:34.607Z,99609.22
2022-09-28T13:16:17.579Z,99613.19
2022-09-28T13:19:00.822Z,99609.19
2022-09-28T13:21:41.412Z,99609.22
2022-09-28T13:24:32.188Z,99612.50
2022-09-28T13:27:10.671Z,99607.25
2022-09-28T13:32:13.962Z,99620.78
2022-09-28T13:34:41.794Z,99617.09
2022-09-28T13:37:21.955Z,99618.78
2022-09-28T13:39:52.704Z,99623.91
2022-09-28T13:43:10.301Z,99614.56
2022-09-28T13:45:54.004Z,99619.06
2022-09-28T13:48:34.407Z,99618.81
2022-09-28T13:51:31.897Z,99625.75
2022-09-28T13:54:29.938Z,99626.31
2022-09-28T13:57:18.310Z,99623.94
2022-09-28T14:00:01.491Z,99621.31
2022-09-28T14:02:42.066Z,99621.31
2022-09-28T14:05:47.784Z,99620.50
2022-09-28T14:08:36.634Z,99624.19
2022-09-28T14:11:55.634Z,99623.00
2022-09-28T14:14:47.215Z,99620.56
2022-09-28T14:18:00.015Z,99629.06
2022-09-28T14:20:31.490Z,99618.38
2022-09-28T14:23:36.904Z,99625.47
2022-09-28T14:26:41.905Z,99625.91
2022-09-28T14:29:28.782Z,99628.50
2022-09-28T14:31:59.060Z,99630.25
2022-09-28T14:34:34.971Z,99630.88
2022-09-28T14:37:24.690Z,99631.84
2022-09-28T14:40:10.333Z,99638.19
2022-09-28T14:42:38.115Z,99640.34
2022-09-28T14:45:36.431Z,99638.81
2022-09-28T14:48:19.806Z,99632.50
2022-09-28T14:50:50.301Z,99643.25
2022-09-28T14:53:24.866Z,99643.56
2022-09-28T14:55:57.832Z,99645.00
2022-09-28T14:58:28.181Z,99649.84
2022-09-28T15:01:07.995Z,99646.00
2022-09-28T15:03:41.795Z,99648.66
2022-09-28T15:06:19.749Z,99649.16
2022-09-28T15:08:47.063Z,99648.09
2022-09-28T15:11:20.010Z,99648.09
2022-09-28T15:13:47.349Z,99648.84
2022-09-28T15:16:17.800Z,99654.19
2022-09-28T15:19:22.820Z,99655.50
2022-09-28T15:21:51.265Z,99651.78
2022-09-28T15:24:34.176Z,99648.03
2022-09-28T15:27:04.222Z,99649.59
2022-09-28T15:29:33.506Z,99656.00
2022-09-28T15:32:02.699Z,99651.47
2022-09-28T15:34:51.254Z,99652.50
2022-09-28T15:37:22.925Z,99653.81
2022-09-28T15:39:52.623Z,99656.50
2022-09-28T15:42:21.072Z,99665.03
2022-09-28T15:45:22.377Z,99659.16
2022-09-28T15:47:57.675Z,99657.53
2022-09-28T15:50:28.713Z,99664.75
2022-09-28T15:53:01.126Z,99667.09
2022-09-28T15:55:31.910Z,99668.41
2022-09-28T15:58:17.867Z,99664.94
2022-09-28T16:00:47.614Z,99656.94
2022-09-28T16:03:29.674Z,99660.13
2022-09-28T16:06:08.178Z,99661.34
2022-09-28T16:08:41.254Z,99673.81
2022-09-28T16:11:16.267Z,99667.38
2022-09-28T16:14:02.057Z,99668.38
2022-09-28T16:16:35.297Z,99678.53
2022-09-28T16:19:05.004Z,99672.72
2022-09-28T16:21:44.232Z,99670.00
2022-09-28T16:24:22.800Z,99681.41
2022-09-28T16:26:58.513Z,99681.66
2022-09-28T16:29:32.976Z,99680.84
2022-09-28T16:32:38.443Z,99678.88
2022-09-28T16:35:22.853Z,99681.53
2022-09-28T16:38:10.536Z,99683.13
2022-09-28T16:40:43.434Z,99690.56
2022-09-28T16:43:26.912Z,99687.84
2022-09-28T16:45:57.925Z,99689.41
2022-09-28T16:48:28.946Z,99686.13
2022-09-28T16:51:15.534Z,99689.22
2022-09-28T16:54:01.820Z,99697.66
2022-09-28T16:56:30.024Z,99699.13
2022-09-28T16:58:57.487Z,99701.97
2022-09-28T17:01:25.160Z,99696.56
2022-09-28T17:03:52.648Z,99695.72
2022-09-28T17:06:25.260Z,99698.81
2022-09-28T17:08:54.300Z,99700.94
2022-09-28T17:11:24.483Z,99707.53
2022-09-28T17:13:56.864Z,99705.13
2022-09-28T17:19:22.456Z,99704.97
2022-09-28T17:21:53.282Z,99706.53
2022-09-28T17:24:20.882Z,99714.44
2022-09-28T17:26:50.943Z,99712.72
2022-09-28T17:29:19.426Z,99718.53
2022-09-28T17:31:48.059Z,99718.22
2022-09-28T17:34:16.940Z,99716.38
2022-09-28T17:36:45.522Z,99725.84
2022-09-28T17:39:16.897Z,99720.78
2022-09-28T17:41:44.549Z,99722.06
2022-09-28T17:44:15.056Z,99723.13
2022-09-28T17:46:49.382Z,99724.97
2022-09-28T17:49:17.278Z,99717.47
2022-09-28T17:51:44.635Z,99723.06
2022-09-28T17:54:16.674Z,99723.06
2022-09-28T17:56:44.103Z,99728.84
2022-09-28T17:59:16.191Z,99722.97
2022-09-28T18:01:43.641Z,99727.72
2022-09-28T18:04:33.284Z,99726.09
2022-09-28T18:07:00.742Z,99731.88
2022-09-28T18:09:29.607Z,99726.25
2022-09-28T18:12:04.239Z,99732.50
2022-09-28T18:14:31.440Z,99727.13
2022-09-28T18:16:58.765Z,99737.88
2022-09-28T18:19:31.747Z,99736.19
2022-09-28T18:21:59.652Z,99734.34
2022-09-28T18:24:26.924Z,99745.63
2022-09-28T18:26:55.570Z,99746.00
2022-09-28T18:29:22.881Z,99745.06
2022-09-28T18:31:50.247Z,99749.25
2022-09-28T18:34:17.785Z,99754.22
2022-09-28T18:36:45.529Z,99752.25
2022-09-28T18:39:12.841Z,99756.06
2022-09-28T18:41:41.501Z,99762.34
2022-09-28T18:44:10.458Z,99760.84
2022-09-28T18:46:38.038Z,99762.59
2022-09-28T18:49:05.420Z,99763.88
2022-09-28T18:51:32.747Z,99773.88
2022-09-28T18:54:06.595Z,99769.63
2022-09-28T18:56:37.284Z,99766.63
2022-09-28T18:59:08.727Z,99774.25
2022-09-28T19:01:41.993Z,99769.41
2022-09-28T19:04:11.741Z,99774.16
2022-09-28T19:06:41.239Z,99779.69
2022-09-28T19:09:09.406Z,99784.19
2022-09-28T19:11:37.169Z,99781.97
2022-09-28T19:14:04.504Z,99786.72
2022-09-28T19:16:34.053Z,99792.72
2022-09-28T19:19:03.311Z,99789.69
2022-09-28T19:21:30.731Z,99785.09
2022-09-28T19:24:02.047Z,99791.44
2022-09-28T19:26:30.403Z,99787.41
2022-09-28T19:28:59.102Z,99786.84
2022-09-28T19:31:27.182Z,99793.56
2022-09-28T19:33:54.476Z,99794.50
2022-09-28T19:36:25.797Z,99792.88
2022-09-28T19:38:53.576Z,99792.88
2022-09-28T19:41:43.435Z,99800.25
2022-09-28T19:44:15.698Z,99799.56
2022-09-28T19:46:43.660Z,99799.66
2022-09-28T19:49:13.667Z,99801.38
2022-09-28T19:52:01.721Z,99802.63
2022-09-28T19:54:36.140Z,99809.19
2022-09-28T19:57:07.868Z,99804.38
2022-09-28T19:59:36.585Z,99806.41
2022-09-28T20:02:05.258Z,99806.88
2022-09-28T20:04:32.749Z,99809.28
2022-09-28T20:07:01.855Z,99818.63
2022-09-28T20:09:29.336Z,99818.63
2022-09-28T20:11:57.196Z,99820.84
2022-09-28T20:14:25.981Z,99819.78
2022-09-28T20:16:58.065Z,99821.88
2022-09-28T20:19:26.201Z,99825.56
2022-09-28T20:21:53.857Z,99836.63
2022-09-28T20:24:22.525Z,99825.63
2022-09-28T20:26:49.817Z,99835.09
2022-09-28T20:29:17.523Z,99831.84
2022-09-28T20:31:45.637Z,99833.94
2022-09-28T20:34:13.368Z,99834.72
2022-09-28T20:36:42.412Z,99835.75
2022-09-28T20:39:10.922Z,99836.00
2022-09-28T20:41:40.219Z,99831.13
2022-09-28T20:44:07.776Z,99838.13
2022-09-28T20:46:35.918Z,99836.97
2022-09-28T20:49:04.177Z,99840.63
2022-09-28T20:51:31.807Z,99842.28
2022-09-28T20:53:59.558Z,99843.09
2022-09-28T20:56:28.855Z,99841.81
2022-09-28T20:58:57.733Z,99846.66
2022-09-28T21:01:27.186Z,99839.91
2022-09-28T21:03:57.366Z,99843.13
2022-09-28T21:06:27.587Z,99841.28
2022-09-28T21:08:55.248Z,99834.72
2022-09-28T21:11:25.062Z,99847.75
2022-09-28T21:13:54.617Z,99842.22
2022-09-28T21:16:23.713Z,99848.09
2022-09-28T21:18:51.004Z,99853.41
2022-09-28T21:21:21.259Z,99845.31
2022-09-28T21:23:51.644Z,99843.56
2022-09-28T21:26:27.213Z,99845.63
2022-09-28T21:28:55.559Z,99844.00
2022-09-28T21:31:29.394Z,99848.06
2022-09-28T21:33:57.648Z,99851.50
2022-09-28T21:36:25.869Z,99850.69
2022-09-28T21:38:54.464Z,99858.88
2022-09-28T21:41:21.842Z,99859.31
2022-09-28T21:43:49.107Z,99863.47
2022-09-28T21:46:17.614Z,99858.59
2022-09-28T21:48:46.375Z,99855.00
2022-09-28T21:51:15.273Z,99858.88
2022-09-28T21:53:42.867Z,99866.25
2022-09-28T21:56:12.585Z,99867.97
2022-09-28T21:58:40.669Z,99871.28
2022-09-28T22:01:14.626Z,99865.84
2022-09-28T22:03:46.639Z,99868.34
2022-09-28T22:06:15.751Z,99870.03
2022-09-28T22:08:43.237Z,99873.09
2022-09-28T22:11:13.308Z,99866.84
2022-09-28T22:13:43.533Z,99870.50
2022-09-28T22:16:13.626Z,99869.91
2022-09-28T22:18:41.661Z,99871.53
2022-09-28T22:21:14.262Z,99875.44
2022-09-28T22:23:42.160Z,99875.22
2022-09-28T22:26:12.583Z,99880.69
2022-09-28T22:28:45.785Z,99880.38
2022-09-28T22:31:13.112Z,99883.34
2022-09-28T22:33:40.454Z,99877.59
2022-09-28T22:36:09.789Z,99879.22
2022-09-28T22:38:37.654Z,99888.19
2022-09-28T22:41:05.022Z,99887.38
2022-09-28T22:43:32.791Z,99894.50
2022-09-28T22:46:05.740Z,99895.97
2022-09-28T22:48:34.815Z,99898.06
2022-09-28T22:51:03.763Z,99894.44
2022-09-28T22:53:33.209Z,99888.78
2022-09-28T22:56:04.008Z,99893.91
2022-09-28T22:58:31.371Z,99889.25
2022-09-28T23:01:06.602Z,99886.06
2022-09-28T23:03:34.824Z,99893.41
2022-09-28T23:06:02.161Z,99892.84
2022-09-28T23:08:29.536Z,99897.13
2022-09-28T23:10:58.190Z,99894.66
2022-09-28T23:13:25.629Z,99889.00
2022-09-28T23:15:58.205Z,99889.44
2022-09-28T23:18:28.684Z,99894.72
2022-09-28T23:20:58.265Z,99887.03
2022-09-28T23:23:26.658Z,99891.72
2022-09-28T23:25:54.661Z,99891.09
2022-09-28T23:28:26.261Z,99890.16
2022-09-28T23:30:54.697Z,99892.22
2022-09-28T23:33:22.566Z,99886.31
2022-09-28T23:35:49.912Z,99896.53
2022-09-28T23:38:18.482Z,99892.91
2022-09-28T23:40:46.663Z,99895.38
2022-09-28T23:43:14.732Z,99888.91
2022-09-28T23:45:44.446Z,99890.56
2022-09-28T23:48:12.802Z,99896.03
2022-09-28T23:50:40.313Z,99899.91
2022-09-28T23:53:07.723Z,99891.41
2022-09-28T23:55:35.002Z,99899.16
2022-09-28T23:58:02.255Z,99893.28
